createdAt,value
2022-11-20T00:01:08.432Z,76.96
2022-11-20T00:03:41.431Z,76.94
2022-11-20T00:06:16.235Z,76.97
2022-11-20T00:08:49.151Z,77.17
2022-11-20T00:11:23.290Z,77.04
2022-11-20T00:13:58.102Z,76.96
2022-11-20T00:16:32.393Z,77.13
2022-11-20T00:19:04.545Z,77.23
2022-11-20T00:21:36.682Z,77.17
2022-11-20T00:24:08.086Z,77.29
2022-11-20T00:26:40.240Z,77.41
2022-11-20T00:29:12.048Z,77.45
2022-11-20T00:31:44.035Z,77.14
2022-11-20T00:34:14.617Z,77.24
2022-11-20T00:36:46.684Z,77.25
2022-11-20T00:39:17.428Z,77.22
2022-11-20T00:41:49.404Z,77.15
2022-11-20T00:44:20.088Z,76.98
2022-11-20T00:46:52.123Z,76.66
2022-11-20T00:49:24.172Z,76.25
2022-11-20T00:51:56.499Z,76.12
2022-11-20T00:54:28.613Z,76.07
2022-11-20T00:57:00.782Z,76.12
2022-11-20T00:59:32.900Z,75.89
2022-11-20T01:02:05.098Z,76.25
2022-11-20T01:04:35.727Z,76.40
2022-11-20T01:07:08.122Z,76.34
2022-11-20T01:09:41.666Z,76.35
2022-11-20T01:12:13.877Z,76.43
2022-11-20T01:14:44.394Z,76.49
2022-11-20T01:17:16.467Z,76.61
2022-11-20T01:19:46.929Z,76.68
2022-11-20T01:22:18.900Z,76.80
2022-11-20T01:24:51.296Z,76.76
2022-11-20T01:27:23.307Z,76.79
2022-11-20T01:30:00.845Z,76.76
2022-11-20T01:32:33.207Z,76.84
2022-11-20T01:35:03.772Z,76.93
2022-11-20T01:37:35.896Z,77.15
2022-11-20T01:40:07.540Z,77.33
2022-11-20T01:42:57.227Z,77.15
2022-11-20T01:46:02.704Z,77.28
2022-11-20T01:48:38.871Z,77.36
2022-11-20T01:51:19.374Z,77.32
2022-11-20T01:53:54.055Z,77.43
2022-11-20T01:56:27.572Z,77.70
2022-11-20T01:59:03.752Z,77.66
2022-11-20T02:01:36.036Z,77.91
2022-11-20T02:04:09.156Z,77.97
2022-11-20T02:06:46.001Z,78.03
2022-11-20T02:09:18.349Z,77.74
2022-11-20T02:11:50.667Z,77.33
2022-11-20T02:14:21.204Z,77.44
2022-11-20T02:16:53.712Z,77.39
2022-11-20T02:19:29.323Z,77.13
2022-11-20T02:22:07.536Z,76.84
2022-11-20T02:24:39.922Z,76.94
2022-11-20T02:27:14.661Z,77.40
2022-11-20T02:29:52.705Z,77.58
2022-11-20T02:32:26.469Z,76.82
2022-11-20T02:34:59.318Z,76.90
2022-11-20T02:37:38.063Z,77.51
2022-11-20T02:40:12.479Z,77.69
2022-11-20T02:42:44.801Z,77.62
2022-11-20T02:45:16.842Z,77.39
2022-11-20T02:47:48.972Z,77.62
2022-11-20T02:50:19.907Z,77.90
2022-11-20T02:52:52.226Z,77.92
2022-11-20T02:55:24.429Z,77.76
2022-11-20T02:57:55.068Z,77.36
2022-11-20T03:00:27.122Z,77.13
2022-11-20T03:02:57.577Z,77.13
2022-11-20T03:05:29.630Z,77.20
2022-11-20T03:08:01.775Z,77.43
2022-11-20T03:10:33.904Z,77.14
2022-11-20T03:13:06.409Z,76.93
2022-11-20T03:15:39.515Z,77.53
2022-11-20T03:18:11.649Z,77.65
2022-11-20T03:20:42.011Z,77.71
2022-11-20T03:23:14.209Z,77.40
2022-11-20T03:25:44.610Z,77.38
2022-11-20T03:28:16.633Z,77.78
2022-11-20T03:30:47.075Z,77.96
2022-11-20T03:33:19.188Z,78.08
2022-11-20T03:35:49.573Z,77.92
2022-11-20T03:38:21.634Z,77.97
2022-11-20T03:40:52.086Z,78.04
2022-11-20T03:43:24.348Z,78.08
2022-11-20T03:45:56.314Z,78.06
2022-11-20T03:48:29.027Z,78.12
2022-11-20T03:51:15.235Z,78.15
2022-11-20T03:53:48.937Z,77.96
2022-11-20T03:56:23.338Z,77.65
2022-11-20T03:58:55.641Z,77.57
2022-11-20T04:01:30.802Z,77.83
2022-11-20T04:04:03.052Z,78.23
2022-11-20T04:06:38.684Z,78.36
2022-11-20T04:09:10.932Z,78.19
2022-11-20T04:11:43.654Z,78.30
2022-11-20T04:14:18.610Z,78.40
2022-11-20T04:16:50.691Z,78.64
2022-11-20T04:19:22.995Z,78.52
2022-11-20T04:21:55.225Z,78.53
2022-11-20T04:24:28.290Z,78.42
2022-11-20T04:27:00.311Z,78.20
2022-11-20T04:29:30.732Z,78.31
2022-11-20T04:32:02.772Z,78.33
2022-11-20T04:34:33.182Z,78.52
2022-11-20T04:37:05.387Z,78.63
2022-11-20T04:39:37.387Z,78.66
2022-11-20T04:42:25.483Z,78.58
2022-11-20T04:44:57.879Z,78.75
2022-11-20T04:47:30.183Z,78.67
2022-11-20T04:50:02.401Z,78.24
2022-11-20T04:52:32.918Z,77.74
2022-11-20T04:55:05.378Z,77.45
2022-11-20T04:57:37.326Z,77.45
2022-11-20T05:00:09.082Z,77.65
2022-11-20T05:02:41.289Z,77.90
2022-11-20T05:05:13.855Z,77.95
2022-11-20T05:07:45.938Z,78.20
2022-11-20T05:10:16.989Z,78.26
2022-11-20T05:12:49.198Z,78.29
2022-11-20T05:15:21.471Z,78.26
2022-11-20T05:17:54.325Z,78.16
2022-11-20T05:20:26.574Z,78.51
2022-11-20T05:23:01.345Z,78.65
2022-11-20T05:25:33.340Z,78.62
2022-11-20T05:28:05.506Z,78.43
2022-11-20T05:30:37.499Z,78.41
2022-11-20T05:33:09.871Z,78.49
2022-11-20T05:35:42.052Z,78.44
2022-11-20T05:38:14.225Z,78.32
2022-11-20T05:40:44.744Z,78.34
2022-11-20T05:43:17.128Z,78.37
2022-11-20T05:45:56.722Z,78.36
2022-11-20T05:48:29.212Z,78.16
2022-11-20T05:51:02.440Z,78.00
2022-11-20T05:53:35.709Z,77.87
2022-11-20T05:56:11.832Z,77.87
2022-11-20T05:58:44.252Z,78.01
2022-11-20T06:01:21.255Z,78.04
2022-11-20T06:03:54.608Z,78.04
2022-11-20T06:06:27.330Z,77.91
2022-11-20T06:08:59.995Z,77.75
2022-11-20T06:11:32.112Z,77.65
2022-11-20T06:14:03.137Z,77.50
2022-11-20T06:16:35.271Z,77.64
2022-11-20T06:19:07.562Z,77.78
2022-11-20T06:21:38.017Z,77.88
2022-11-20T06:24:12.439Z,77.87
2022-11-20T06:26:44.623Z,77.69
2022-11-20T06:29:16.814Z,77.59
2022-11-20T06:31:48.936Z,77.79
2022-11-20T06:34:21.600Z,77.94
2022-11-20T06:36:53.557Z,77.83
2022-11-20T06:39:27.173Z,77.78
2022-11-20T06:41:59.562Z,77.26
2022-11-20T06:44:31.943Z,77.21
2022-11-20T06:47:02.406Z,77.11
2022-11-20T06:49:35.345Z,76.81
2022-11-20T06:52:07.673Z,76.87
2022-11-20T06:54:39.567Z,76.46
2022-11-20T06:57:10.104Z,76.35
2022-11-20T06:59:43.130Z,76.04
2022-11-20T07:02:15.304Z,75.48
2022-11-20T07:04:48.086Z,75.33
2022-11-20T07:07:20.786Z,75.78
2022-11-20T07:09:54.469Z,75.87
2022-11-20T07:12:26.924Z,76.10
2022-11-20T07:15:00.926Z,76.10
2022-11-20T07:17:33.501Z,76.67
2022-11-20T07:20:08.083Z,77.24
2022-11-20T07:22:41.329Z,76.81
2022-11-20T07:25:14.265Z,76.36
2022-11-20T07:27:47.447Z,76.21
2022-11-20T07:30:19.938Z,76.02
2022-11-20T07:32:55.319Z,75.05
2022-11-20T07:35:28.866Z,74.42
2022-11-20T07:38:02.154Z,73.85
2022-11-20T07:40:36.300Z,73.71
2022-11-20T07:43:09.514Z,72.69
2022-11-20T07:45:42.012Z,72.19
2022-11-20T07:48:13.448Z,71.56
2022-11-20T07:50:45.604Z,70.80
2022-11-20T07:53:21.691Z,70.46
2022-11-20T07:55:55.032Z,69.81
2022-11-20T07:58:27.705Z,68.79
2022-11-20T08:01:05.415Z,68.43
2022-11-20T08:03:39.904Z,68.33
2022-11-20T08:06:12.787Z,68.92
2022-11-20T08:08:45.623Z,69.02
2022-11-20T08:11:35.544Z,69.43
2022-11-20T08:14:14.458Z,69.96
2022-11-20T08:16:49.261Z,69.34
2022-11-20T08:19:23.240Z,69.36
2022-11-20T08:21:55.498Z,69.03
2022-11-20T08:24:27.861Z,67.92
2022-11-20T08:27:01.089Z,68.20
2022-11-20T08:29:33.167Z,67.62
2022-11-20T08:32:05.486Z,66.42
2022-11-20T08:34:43.911Z,66.48
2022-11-20T08:37:15.888Z,65.94
2022-11-20T08:39:48.180Z,65.67
2022-11-20T08:42:20.219Z,64.83
2022-11-20T08:44:52.226Z,64.84
2022-11-20T08:47:24.307Z,64.45
2022-11-20T08:49:54.945Z,64.32
2022-11-20T08:52:27.012Z,63.61
2022-11-20T08:54:57.601Z,64.00
2022-11-20T08:57:29.603Z,63.67
2022-11-20T09:00:06.338Z,63.04
2022-11-20T09:02:38.599Z,63.45
2022-11-20T09:05:12.463Z,64.19
2022-11-20T09:07:44.528Z,64.12
2022-11-20T09:10:23.959Z,64.00
2022-11-20T09:12:57.463Z,62.82
2022-11-20T09:15:29.780Z,63.19
2022-11-20T09:18:03.651Z,63.67
2022-11-20T09:20:35.659Z,62.94
2022-11-20T09:23:07.791Z,62.39
2022-11-20T09:25:39.933Z,61.99
2022-11-20T09:28:10.488Z,61.56
2022-11-20T09:30:42.646Z,61.66
2022-11-20T09:33:14.736Z,61.45
2022-11-20T09:35:45.666Z,61.34
2022-11-20T09:38:17.708Z,60.81
2022-11-20T09:40:58.024Z,60.65
2022-11-20T09:43:43.651Z,60.06
2022-11-20T09:46:22.631Z,59.77
2022-11-20T09:49:09.873Z,59.62
2022-11-20T09:51:56.727Z,59.88
2022-11-20T09:54:35.046Z,59.95
2022-11-20T09:57:13.208Z,59.87
2022-11-20T09:59:48.860Z,59.68
2022-11-20T10:02:30.866Z,59.36
2022-11-20T10:05:09.108Z,59.19
2022-11-20T10:07:45.935Z,59.11
2022-11-20T10:10:29.783Z,59.94
2022-11-20T10:13:17.419Z,59.19
2022-11-20T10:16:03.328Z,58.00
2022-11-20T10:18:52.776Z,58.94
2022-11-20T10:21:34.624Z,59.25
2022-11-20T10:24:36.989Z,59.49
2022-11-20T10:27:18.220Z,59.41
2022-11-20T10:30:01.785Z,59.79
2022-11-20T10:32:38.891Z,59.38
2022-11-20T10:35:22.362Z,59.11
2022-11-20T10:38:00.421Z,59.07
2022-11-20T10:40:37.628Z,58.91
2022-11-20T10:43:17.587Z,58.52
2022-11-20T10:45:57.608Z,59.38
2022-11-20T10:48:33.281Z,59.67
2022-11-20T10:51:24.056Z,60.07
2022-11-20T10:54:08.518Z,60.08
2022-11-20T10:56:50.243Z,60.16
2022-11-20T10:59:47.742Z,60.53
2022-11-20T11:02:21.994Z,60.75
2022-11-20T11:04:55.797Z,60.94
2022-11-20T11:07:31.215Z,60.09
2022-11-20T11:10:03.649Z,59.46
2022-11-20T11:12:35.766Z,59.41
2022-11-20T11:15:14.823Z,59.22
2022-11-20T11:17:51.278Z,59.60
2022-11-20T11:20:24.385Z,59.78
2022-11-20T11:22:58.972Z,59.56
2022-11-20T11:25:35.553Z,59.44
2022-11-20T11:28:22.378Z,59.42
2022-11-20T11:30:54.505Z,59.80
2022-11-20T11:33:25.702Z,59.84
2022-11-20T11:35:59.530Z,59.31
2022-11-20T11:38:37.855Z,59.33
2022-11-20T11:41:17.437Z,59.55
2022-11-20T11:44:13.615Z,59.86
2022-11-20T11:46:53.914Z,60.11
2022-11-20T11:49:26.148Z,60.48
2022-11-20T11:52:07.417Z,61.04
2022-11-20T11:54:45.359Z,61.57
2022-11-20T11:57:22.809Z,61.93
2022-11-20T12:00:06.363Z,61.20
2022-11-20T12:02:47.344Z,61.21
2022-11-20T12:05:25.607Z,60.00
2022-11-20T12:08:09.441Z,59.87
2022-11-20T12:10:54.326Z,60.24
2022-11-20T12:13:37.487Z,60.43
2022-11-20T12:16:14.913Z,60.78
2022-11-20T12:18:48.544Z,60.50
2022-11-20T12:21:28.519Z,60.11
2022-11-20T12:24:34.581Z,60.15
2022-11-20T12:27:26.905Z,60.22
2022-11-20T12:30:05.783Z,60.30
2022-11-20T12:32:53.980Z,60.22
2022-11-20T12:35:44.182Z,60.64
2022-11-20T12:38:45.305Z,60.84
2022-11-20T12:41:46.561Z,61.14
2022-11-20T12:44:53.322Z,61.37
2022-11-20T12:47:34.248Z,61.31
2022-11-20T12:50:17.531Z,61.06
2022-11-20T12:52:56.822Z,60.79
2022-11-20T12:55:35.939Z,60.74
2022-11-20T12:58:13.833Z,60.96
2022-11-20T13:00:56.971Z,60.78
2022-11-20T13:03:40.125Z,60.24
2022-11-20T13:06:19.639Z,60.47
2022-11-20T13:08:57.646Z,60.61
2022-11-20T13:11:39.525Z,60.81
2022-11-20T13:14:34.596Z,60.98
2022-11-20T13:17:14.504Z,61.11
2022-11-20T13:19:52.613Z,61.36
2022-11-20T13:22:30.331Z,61.63
2022-11-20T13:25:03.327Z,61.75
2022-11-20T13:27:36.289Z,61.48
2022-11-20T13:30:20.614Z,61.35
2022-11-20T13:32:55.484Z,61.73
2022-11-20T13:35:34.609Z,61.79
2022-11-20T13:38:12.845Z,61.99
2022-11-20T13:40:55.451Z,62.11
2022-11-20T13:43:37.597Z,62.51
2022-11-20T13:46:12.026Z,62.60
2022-11-20T13:48:47.538Z,62.78
2022-11-20T13:51:35.182Z,62.95
2022-11-20T13:54:35.001Z,63.06
2022-11-20T13:57:21.485Z,62.98
2022-11-20T14:00:00.209Z,63.09
2022-11-20T14:02:33.750Z,63.36
2022-11-20T14:05:09.866Z,63.55
2022-11-20T14:07:44.522Z,63.70
2022-11-20T14:10:30.095Z,64.02
2022-11-20T14:13:17.683Z,64.30
2022-11-20T14:15:58.946Z,64.35
2022-11-20T14:18:31.820Z,64.63
2022-11-20T14:21:06.388Z,64.80
2022-11-20T14:23:40.221Z,65.03
2022-11-20T14:26:17.815Z,64.68
2022-11-20T14:28:53.315Z,64.62
2022-11-20T14:31:28.409Z,64.76
2022-11-20T14:34:00.977Z,64.76
2022-11-20T14:36:34.626Z,64.85
2022-11-20T14:39:06.726Z,64.74
2022-11-20T14:41:38.778Z,64.65
2022-11-20T14:44:13.426Z,64.42
2022-11-20T14:46:46.252Z,64.58
2022-11-20T14:49:30.880Z,64.28
2022-11-20T14:52:17.989Z,64.20
2022-11-20T14:54:52.034Z,64.10
2022-11-20T14:57:27.685Z,63.89
2022-11-20T15:00:21.489Z,63.85
2022-11-20T15:02:54.598Z,64.02
2022-11-20T15:05:28.725Z,64.07
2022-11-20T15:08:11.723Z,64.17
2022-11-20T15:10:50.310Z,64.42
2022-11-20T15:13:29.521Z,64.61
2022-11-20T15:16:02.812Z,64.73
2022-11-20T15:18:40.195Z,64.87
2022-11-20T15:21:15.677Z,64.93
2022-11-20T15:23:49.413Z,65.07
2022-11-20T15:26:26.679Z,64.72
2022-11-20T15:29:00.301Z,64.73
2022-11-20T15:31:33.490Z,64.93
2022-11-20T15:34:08.728Z,65.13
2022-11-20T15:36:41.773Z,65.42
2022-11-20T15:39:14.936Z,65.65
2022-11-20T15:41:47.575Z,66.09
2022-11-20T15:44:21.728Z,67.46
2022-11-20T15:46:54.577Z,68.14
2022-11-20T15:49:26.612Z,68.27
2022-11-20T15:51:58.608Z,68.53
2022-11-20T15:54:30.932Z,68.70
2022-11-20T15:57:03.929Z,68.67
2022-11-20T15:59:38.092Z,68.41
2022-11-20T16:02:18.739Z,68.17
2022-11-20T16:04:53.641Z,68.08
2022-11-20T16:07:26.343Z,68.39
2022-11-20T16:09:58.679Z,68.35
2022-11-20T16:12:48.552Z,68.49
2022-11-20T16:15:38.999Z,68.59
2022-11-20T16:18:13.219Z,69.11
2022-11-20T16:20:46.277Z,68.91
2022-11-20T16:23:18.913Z,68.51
2022-11-20T16:25:52.605Z,68.40
2022-11-20T16:28:25.541Z,68.38
2022-11-20T16:30:58.269Z,68.46
2022-11-20T16:33:31.439Z,68.50
2022-11-20T16:36:10.468Z,68.62
2022-11-20T16:38:44.021Z,68.84
2022-11-20T16:41:16.036Z,69.04
2022-11-20T16:43:50.212Z,69.26
2022-11-20T16:46:24.347Z,69.21
2022-11-20T16:48:58.825Z,69.36
2022-11-20T16:51:33.326Z,69.45
2022-11-20T16:54:06.899Z,69.86
2022-11-20T16:56:40.157Z,70.20
2022-11-20T16:59:12.472Z,70.51
2022-11-20T17:01:44.756Z,70.64
2022-11-20T17:04:15.512Z,70.93
2022-11-20T17:06:48.007Z,71.24
2022-11-20T17:09:20.221Z,71.50
2022-11-20T17:11:50.911Z,71.64
2022-11-20T17:14:23.269Z,71.76
2022-11-20T17:16:55.500Z,71.97
2022-11-20T17:19:27.672Z,72.02
2022-11-20T17:21:59.885Z,72.08
2022-11-20T17:24:32.348Z,72.14
2022-11-20T17:27:04.639Z,72.18
2022-11-20T17:29:41.873Z,72.27
2022-11-20T17:32:14.377Z,72.33
2022-11-20T17:34:46.367Z,72.29
2022-11-20T17:37:18.433Z,72.46
2022-11-20T17:39:50.379Z,72.66
2022-11-20T17:42:29.922Z,72.77
2022-11-20T17:45:02.072Z,72.93
2022-11-20T17:47:33.120Z,73.17
2022-11-20T17:50:06.672Z,73.35
2022-11-20T17:52:39.010Z,73.57
2022-11-20T17:55:13.233Z,73.66
2022-11-20T17:58:02.940Z,73.88
2022-11-20T18:00:35.802Z,74.09
2022-11-20T18:03:08.213Z,74.24
2022-11-20T18:05:41.396Z,74.42
2022-11-20T18:08:14.288Z,74.52
2022-11-20T18:10:46.698Z,74.51
2022-11-20T18:13:19.280Z,74.58
2022-11-20T18:15:51.575Z,74.70
2022-11-20T18:18:23.824Z,74.99
2022-11-20T18:20:57.371Z,74.94
2022-11-20T18:23:31.660Z,75.00
2022-11-20T18:26:05.956Z,75.08
2022-11-20T18:28:41.079Z,75.35
2022-11-20T18:31:14.347Z,75.42
2022-11-20T18:33:47.874Z,75.54
2022-11-20T18:36:22.426Z,75.85
2022-11-20T18:38:57.024Z,76.13
2022-11-20T18:41:48.197Z,76.27
2022-11-20T18:44:42.016Z,76.31
2022-11-20T18:47:16.995Z,76.53
2022-11-20T18:49:53.188Z,76.74
2022-11-20T18:52:26.921Z,76.84
2022-11-20T18:54:59.368Z,77.02
2022-11-20T18:57:32.318Z,77.04
2022-11-20T19:00:09.384Z,77.18
2022-11-20T19:02:43.231Z,77.15
2022-11-20T19:05:17.035Z,77.09
2022-11-20T19:07:51.626Z,77.22
2022-11-20T19:10:24.915Z,77.36
2022-11-20T19:12:58.777Z,77.61
2022-11-20T19:15:31.139Z,77.57
2022-11-20T19:18:03.460Z,77.78
2022-11-20T19:20:35.947Z,77.83
2022-11-20T19:23:08.577Z,77.97
2022-11-20T19:25:40.925Z,77.88
2022-11-20T19:28:13.177Z,78.10
2022-11-20T19:30:43.761Z,78.05
2022-11-20T19:33:15.968Z,78.12
2022-11-20T19:35:48.709Z,78.22
2022-11-20T19:38:20.937Z,78.25
2022-11-20T19:40:51.446Z,78.45
2022-11-20T19:43:23.533Z,78.49
2022-11-20T19:45:56.728Z,78.46
2022-11-20T19:48:30.983Z,78.46
2022-11-20T19:51:12.045Z,78.46
2022-11-20T19:53:44.928Z,78.24
2022-11-20T19:56:17.176Z,78.30
2022-11-20T19:58:49.592Z,78.25
2022-11-20T20:01:24.392Z,78.10
2022-11-20T20:04:01.442Z,78.12
2022-11-20T20:06:35.428Z,78.22
2022-11-20T20:09:10.243Z,78.03
2022-11-20T20:11:46.563Z,77.99
2022-11-20T20:14:19.559Z,78.47
2022-11-20T20:16:51.865Z,78.63
2022-11-20T20:19:24.846Z,78.83
2022-11-20T20:21:57.327Z,78.88
2022-11-20T20:24:29.383Z,78.84
2022-11-20T20:27:01.426Z,78.84
2022-11-20T20:29:33.385Z,78.78
2022-11-20T20:32:05.562Z,78.82
2022-11-20T20:34:35.950Z,78.79
2022-11-20T20:37:08.291Z,79.05
2022-11-20T20:39:38.789Z,79.09
2022-11-20T20:42:11.040Z,78.94
2022-11-20T20:45:00.605Z,78.81
2022-11-20T20:47:34.336Z,78.80
2022-11-20T20:50:07.604Z,79.25
2022-11-20T20:52:40.247Z,79.42
2022-11-20T20:55:14.209Z,79.37
2022-11-20T20:57:46.267Z,79.33
2022-11-20T21:00:19.337Z,79.36
2022-11-20T21:02:51.405Z,79.28
2022-11-20T21:05:23.534Z,79.16
2022-11-20T21:08:11.604Z,79.39
2022-11-20T21:10:43.640Z,79.42
2022-11-20T21:13:15.835Z,79.38
2022-11-20T21:15:49.969Z,79.44
2022-11-20T21:18:23.657Z,79.52
2022-11-20T21:21:15.323Z,79.65
2022-11-20T21:23:49.756Z,79.73
2022-11-20T21:26:22.769Z,79.81
2022-11-20T21:28:55.079Z,79.58
2022-11-20T21:31:28.784Z,79.62
2022-11-20T21:34:01.488Z,79.87
2022-11-20T21:36:34.007Z,79.89
2022-11-20T21:39:06.483Z,79.83
2022-11-20T21:41:38.994Z,80.00
2022-11-20T21:44:31.392Z,80.12
2022-11-20T21:47:03.948Z,80.35
2022-11-20T21:49:36.142Z,80.61
2022-11-20T21:52:08.448Z,80.57
2022-11-20T21:54:40.822Z,80.56
2022-11-20T21:57:12.865Z,80.75
2022-11-20T21:59:44.881Z,80.48
2022-11-20T22:02:18.279Z,80.54
2022-11-20T22:04:51.433Z,80.51
2022-11-20T22:07:23.599Z,80.44
2022-11-20T22:09:55.813Z,80.48
2022-11-20T22:12:26.431Z,80.66
2022-11-20T22:14:58.437Z,80.71
2022-11-20T22:17:48.016Z,80.69
2022-11-20T22:20:20.436Z,80.75
2022-11-20T22:22:52.686Z,80.64
2022-11-20T22:25:23.093Z,80.65
2022-11-20T22:27:55.106Z,80.78
2022-11-20T22:30:27.807Z,80.96
2022-11-20T22:32:59.881Z,80.95
2022-11-20T22:35:32.792Z,80.70
2022-11-20T22:38:04.820Z,80.69
2022-11-20T22:40:37.269Z,80.57
2022-11-20T22:43:07.736Z,80.46
2022-11-20T22:45:39.901Z,80.66
2022-11-20T22:48:12.135Z,80.95
2022-11-20T22:50:44.223Z,80.97
2022-11-20T22:53:14.763Z,81.06
2022-11-20T22:55:49.957Z,81.15
2022-11-20T22:58:22.248Z,81.21
2022-11-20T23:00:54.280Z,81.32
2022-11-20T23:03:26.415Z,81.36
2022-11-20T23:05:59.536Z,81.18
2022-11-20T23:08:32.190Z,81.42
2022-11-20T23:11:05.893Z,81.42
2022-11-20T23:13:38.398Z,81.51
2022-11-20T23:16:13.941Z,81.34
2022-11-20T23:18:46.855Z,81.49
2022-11-20T23:21:20.615Z,81.61
2022-11-20T23:23:53.944Z,81.33
2022-11-20T23:26:28.484Z,80.81
2022-11-20T23:29:01.682Z,81.04
2022-11-20T23:31:35.628Z,81.41
2022-11-20T23:34:07.679Z,81.59
2022-11-20T23:36:39.775Z,81.79
2022-11-20T23:39:10.347Z,81.87
2022-11-20T23:41:42.396Z,81.98
2022-11-20T23:44:14.350Z,81.91
2022-11-20T23:46:46.427Z,81.99
2022-11-20T23:49:18.408Z,81.89
2022-11-20T23:51:48.806Z,81.94
2022-11-20T23:54:20.769Z,82.04
2022-11-20T23:56:52.749Z,82.00
2022-11-20T23:59:23.288Z,81.94
